KMFI/MFI METAR and TAF weather

Enter ICAO airport designator
Station Type Date Time Source
KMFI METAR 2018/12/12 10:54 UTC NOAA

KMFI 121054Z AUTO 11011KT OVC006 M03/M03 A2970 RMK AO2 SLP077 T10281033 TSNO $


Station Type Date Time Source
KMFI Decoded METAR 2018/12/12 10:54 UTC NOAA

MARSHFIELD MUNICIPAL AIRPORT, WI, United States (KMFI) 44-38N 90-11W 379M
Dec 12, 2018 - 05:54 AM EST / 2018.12.12 1054 UTC
Wind: from the ESE (110 degrees) at 13 MPH (11 KT):0
Sky conditions: overcast
Temperature: 27.0 F (-2.8 C)
Windchill: 15 F (-9 C):1
Dew Point: 26.1 F (-3.3 C)
Relative Humidity: 96%
Pressure (altimeter): 29.7 in. Hg (1005 hPa)
ob: KMFI 121054Z AUTO 11011KT OVC006 M03/M03 A2970 RMK AO2 SLP077 T10281033 TSNO
cycle: 11

Station Type Date Time Source
KMFI TAF UTC NOAA

Error!


Example: see airport list